createdAt,value
2022-08-16T00:00:56.763Z,100326.03
2022-08-16T00:03:23.234Z,100329.28
2022-08-16T00:05:57.538Z,100330.81
2022-08-16T00:08:35.643Z,100322.78
2022-08-16T00:11:05.590Z,100327.00
2022-08-16T00:13:33.727Z,100329.81
2022-08-16T00:17:01.099Z,100321.94
2022-08-16T00:18:55.257Z,100335.75
2022-08-16T00:21:23.216Z,100330.31
2022-08-16T00:23:49.594Z,100336.13
2022-08-16T00:26:35.652Z,100336.16
2022-08-16T00:29:03.617Z,100333.47
2022-08-16T00:31:58.729Z,100341.91
2022-08-16T00:34:22.905Z,100337.09
2022-08-16T00:37:09.761Z,100340.34
2022-08-16T00:39:36.272Z,100344.59
2022-08-16T00:42:03.293Z,100359.81
2022-08-16T00:44:32.042Z,100356.81
2022-08-16T00:47:06.125Z,100352.16
2022-08-16T00:49:39.042Z,100357.41
2022-08-16T00:52:06.344Z,100362.28
2022-08-16T00:54:52.872Z,100367.22
2022-08-16T00:57:20.220Z,100369.59
2022-08-16T00:59:58.951Z,100370.44
2022-08-16T01:02:31.920Z,100364.09
2022-08-16T01:05:10.496Z,100370.28
2022-08-16T01:07:50.978Z,100374.66
2022-08-16T01:10:19.598Z,100375.63
2022-08-16T01:12:46.176Z,100386.50
2022-08-16T01:15:13.899Z,100379.59
2022-08-16T01:17:42.160Z,100374.53
2022-08-16T01:20:24.099Z,100381.88
2022-08-16T01:23:08.428Z,100374.28
2022-08-16T01:25:38.847Z,100368.63
2022-08-16T01:28:09.978Z,100376.97
2022-08-16T01:30:50.585Z,100373.44
2022-08-16T01:33:19.484Z,100377.53
2022-08-16T01:35:56.240Z,100370.22
2022-08-16T01:38:35.347Z,100372.47
2022-08-16T01:41:06.537Z,100375.59
2022-08-16T01:43:35.549Z,100379.53
2022-08-16T01:46:29.563Z,100379.13
2022-08-16T01:49:04.733Z,100376.31
2022-08-16T01:51:31.356Z,100379.00
2022-08-16T01:53:59.549Z,100385.31
2022-08-16T01:56:31.144Z,100383.78
2022-08-16T01:59:00.571Z,100395.84
2022-08-16T02:01:29.010Z,100397.41
2022-08-16T02:03:58.664Z,100391.91
2022-08-16T02:06:38.836Z,100393.59
2022-08-16T02:09:11.856Z,100391.91
2022-08-16T02:11:48.194Z,100392.31
2022-08-16T02:14:22.481Z,100399.38
2022-08-16T02:16:58.477Z,100385.88
2022-08-16T02:19:58.549Z,100393.88
2022-08-16T02:22:34.527Z,100399.78
2022-08-16T02:25:14.629Z,100402.31
2022-08-16T02:27:44.087Z,100399.63
2022-08-16T02:30:36.520Z,100401.31
2022-08-16T02:33:04.685Z,100398.53
2022-08-16T02:35:33.421Z,100394.28
2022-08-16T02:38:01.745Z,100394.59
2022-08-16T02:40:36.616Z,100389.38
2022-08-16T02:43:04.374Z,100390.63
2022-08-16T02:45:31.785Z,100388.41
2022-08-16T02:48:01.477Z,100388.53
2022-08-16T02:50:53.796Z,100385.59
2022-08-16T02:53:30.362Z,100387.97
2022-08-16T02:55:58.869Z,100377.28
2022-08-16T02:58:26.200Z,100386.69
2022-08-16T03:00:56.002Z,100382.31
2022-08-16T03:03:24.870Z,100378.56
2022-08-16T03:05:53.064Z,100373.22
2022-08-16T03:08:51.188Z,100375.59
2022-08-16T03:11:16.561Z,100384.44
2022-08-16T03:13:47.615Z,100384.88
2022-08-16T03:16:32.888Z,100389.09
2022-08-16T03:19:04.113Z,100388.22
2022-08-16T03:21:38.014Z,100380.63
2022-08-16T03:24:27.548Z,100377.94
2022-08-16T03:26:58.749Z,100378.78
2022-08-16T03:29:30.326Z,100383.66
2022-08-16T03:32:01.244Z,100374.34
2022-08-16T03:34:29.823Z,100379.97
2022-08-16T03:36:57.788Z,100386.16
2022-08-16T03:39:25.063Z,100378.75
2022-08-16T03:41:59.853Z,100380.84
2022-08-16T03:44:43.502Z,100381.31
2022-08-16T03:47:19.071Z,100377.97
2022-08-16T03:49:47.891Z,100381.19
2022-08-16T03:52:20.170Z,100378.38
2022-08-16T03:54:57.586Z,100385.28
2022-08-16T03:57:31.859Z,100378.97
2022-08-16T04:00:35.409Z,100396.53
2022-08-16T04:03:07.709Z,100389.22
2022-08-16T04:05:43.953Z,100389.22
2022-08-16T04:08:23.516Z,100391.03
2022-08-16T04:10:55.367Z,100396.28
2022-08-16T04:14:00.777Z,100397.09
2022-08-16T04:16:27.254Z,100396.13
2022-08-16T04:19:02.746Z,100392.88
2022-08-16T04:21:45.917Z,100402.72
2022-08-16T04:24:17.107Z,100404.28
2022-08-16T04:26:46.272Z,100402.72
2022-08-16T04:29:24.383Z,100407.22
2022-08-16T04:31:55.757Z,100396.53
2022-08-16T04:34:32.326Z,100402.72
2022-08-16T04:37:01.089Z,100400.78
2022-08-16T04:39:44.922Z,100396.13
2022-08-16T04:42:17.099Z,100399.50
2022-08-16T04:44:54.190Z,100406.53
2022-08-16T04:47:33.258Z,100410.88
2022-08-16T04:50:15.205Z,100411.09
2022-08-16T04:52:59.114Z,100421.47
2022-08-16T04:55:37.663Z,100414.41
2022-08-16T04:58:45.225Z,100413.47
2022-08-16T05:00:56.964Z,100420.88
2022-08-16T05:03:23.739Z,100420.56
2022-08-16T05:05:59.025Z,100433.66
2022-08-16T05:08:30.849Z,100436.34
2022-08-16T05:11:08.383Z,100436.31
2022-08-16T05:13:41.701Z,100437.38
2022-08-16T05:16:25.530Z,100436.34
2022-08-16T05:19:02.123Z,100447.41
2022-08-16T05:21:35.960Z,100444.03
2022-08-16T05:24:09.091Z,100442.75
2022-08-16T05:26:40.972Z,100438.91
2022-08-16T05:29:14.640Z,100443.59
2022-08-16T05:31:53.265Z,100444.06
2022-08-16T05:34:22.527Z,100448.50
2022-08-16T05:36:55.190Z,100449.47
2022-08-16T05:39:24.912Z,100460.16
2022-08-16T05:41:53.364Z,100458.19
2022-08-16T05:44:25.065Z,100464.09
2022-08-16T05:47:00.234Z,100467.88
2022-08-16T05:49:39.654Z,100475.91
2022-08-16T05:52:11.203Z,100480.72
2022-08-16T05:54:46.716Z,100484.41
2022-08-16T05:57:16.004Z,100485.56
2022-08-16T05:59:43.513Z,100486.13
2022-08-16T06:02:10.089Z,100496.09
2022-08-16T06:04:37.960Z,100493.69
2022-08-16T06:07:25.214Z,100497.72
2022-08-16T06:10:03.656Z,100492.69
2022-08-16T06:12:33.359Z,100496.03
2022-08-16T06:15:09.905Z,100486.31
2022-08-16T06:17:42.789Z,100496.56
2022-08-16T06:20:36.036Z,100492.59
2022-08-16T06:23:17.463Z,100501.22
2022-08-16T06:26:08.027Z,100499.28
2022-08-16T06:28:38.478Z,100499.22
2022-08-16T06:31:12.490Z,100495.97
2022-08-16T06:33:44.648Z,100500.81
2022-08-16T06:36:14.853Z,100513.03
2022-08-16T06:38:52.290Z,100507.47
2022-08-16T06:41:41.824Z,100515.66
2022-08-16T06:44:20.838Z,100521.41
2022-08-16T06:46:50.424Z,100521.91
2022-08-16T06:49:17.824Z,100523.88
2022-08-16T06:51:46.705Z,100517.56
2022-08-16T06:54:18.324Z,100524.34
2022-08-16T06:56:45.627Z,100516.06
2022-08-16T06:59:13.990Z,100518.38
2022-08-16T07:01:54.351Z,100519.63
2022-08-16T07:04:32.445Z,100519.06
2022-08-16T07:07:11.939Z,100519.59
2022-08-16T07:09:41.203Z,100522.72
2022-08-16T07:12:08.521Z,100516.84
2022-08-16T07:14:39.577Z,100521.06
2022-08-16T07:17:08.272Z,100520.66
2022-08-16T07:20:30.213Z,100519.84
2022-08-16T07:22:39.694Z,100523.69
2022-08-16T07:25:16.006Z,100520.72
2022-08-16T07:27:44.363Z,100520.88
2022-08-16T07:30:44.868Z,100517.19
2022-08-16T07:33:05.655Z,100527.19
2022-08-16T07:35:34.435Z,100528.34
2022-08-16T07:38:01.079Z,100534.22
2022-08-16T07:40:59.398Z,100529.31
2022-08-16T07:43:25.278Z,100544.94
2022-08-16T07:45:59.570Z,100535.50
2022-08-16T07:48:28.873Z,100536.66
2022-08-16T07:50:59.585Z,100531.00
2022-08-16T07:53:32.005Z,100529.47
2022-08-16T07:56:04.313Z,100531.97
2022-08-16T07:58:37.673Z,100543.81
2022-08-16T08:01:10.478Z,100540.59
2022-08-16T08:03:52.770Z,100546.09
2022-08-16T08:06:29.078Z,100539.72
2022-08-16T08:09:00.320Z,100541.97
2022-08-16T08:11:29.237Z,100542.09
2022-08-16T08:14:03.307Z,100546.00
2022-08-16T08:16:33.661Z,100543.72
2022-08-16T08:19:03.192Z,100544.25
2022-08-16T08:21:58.163Z,100544.94
2022-08-16T08:24:32.064Z,100550.31
2022-08-16T08:27:02.201Z,100555.78
2022-08-16T08:29:37.605Z,100556.03
2022-08-16T08:32:58.178Z,100557.81
2022-08-16T08:35:02.989Z,100559.03
2022-08-16T08:37:54.236Z,100566.59
2022-08-16T08:40:18.852Z,100565.31
2022-08-16T08:42:52.049Z,100566.41
2022-08-16T08:45:48.359Z,100581.66
2022-08-16T08:48:34.086Z,100578.66
2022-08-16T08:50:59.035Z,100584.47
2022-08-16T08:53:30.625Z,100576.75
2022-08-16T08:55:59.195Z,100581.50
2022-08-16T08:58:34.028Z,100578.63
2022-08-16T09:01:31.927Z,100579.47
2022-08-16T09:04:08.014Z,100581.72
2022-08-16T09:06:35.891Z,100583.03
2022-08-16T09:09:16.618Z,100580.06
2022-08-16T09:11:53.671Z,100586.72
2022-08-16T09:14:33.190Z,100586.03
2022-08-16T09:17:03.797Z,100581.34
2022-08-16T09:19:40.696Z,100585.94
2022-08-16T09:22:20.662Z,100580.00
2022-08-16T09:24:52.670Z,100578.38
2022-08-16T09:27:23.452Z,100574.41
2022-08-16T09:29:59.836Z,100573.75
2022-08-16T09:32:30.310Z,100580.59
2022-08-16T09:34:58.740Z,100588.00
2022-08-16T09:37:29.429Z,100585.97
2022-08-16T09:40:00.793Z,100581.88
2022-08-16T09:42:29.219Z,100582.59
2022-08-16T09:45:10.781Z,100583.94
2022-08-16T09:47:57.147Z,100591.06
2022-08-16T09:50:33.192Z,100594.94
2022-08-16T09:53:15.589Z,100596.44
2022-08-16T09:55:49.482Z,100589.53
2022-08-16T09:58:41.343Z,100591.69
2022-08-16T10:01:05.296Z,100592.94
2022-08-16T10:03:32.144Z,100592.06
2022-08-16T10:05:59.284Z,100603.34
2022-08-16T10:08:27.451Z,100602.69
2022-08-16T10:11:12.788Z,100600.41
2022-08-16T10:13:41.440Z,100596.28
2022-08-16T10:18:56.818Z,100596.47
2022-08-16T10:21:24.303Z,100590.66
2022-08-16T10:23:56.835Z,100592.81
2022-08-16T10:27:19.481Z,100596.38
2022-08-16T10:29:20.126Z,100591.66
2022-08-16T10:31:53.214Z,100593.50
2022-08-16T10:34:32.382Z,100588.84
2022-08-16T10:37:02.857Z,100586.78
2022-08-16T10:39:41.596Z,100588.34
2022-08-16T10:42:13.221Z,100588.44
2022-08-16T10:44:40.283Z,100585.44
2022-08-16T10:47:09.932Z,100595.75
2022-08-16T10:49:39.093Z,100591.03
2022-08-16T10:52:17.938Z,100601.06
2022-08-16T10:57:33.105Z,100594.06
2022-08-16T11:00:01.189Z,100598.72
2022-08-16T11:02:59.225Z,100595.44
2022-08-16T11:05:16.711Z,100593.63
2022-08-16T11:07:52.643Z,100597.69
2022-08-16T11:11:01.596Z,100599.38
2022-08-16T11:19:12.479Z,100609.19
2022-08-16T11:24:40.054Z,100612.22
2022-08-16T11:27:19.860Z,100606.44
2022-08-16T11:29:48.492Z,100602.25
2022-08-16T11:32:15.411Z,100606.34
2022-08-16T11:35:09.992Z,100612.25
2022-08-16T11:38:23.606Z,100621.91
2022-08-16T11:40:25.011Z,100627.34
2022-08-16T11:42:59.173Z,100623.75
2022-08-16T11:45:25.628Z,100620.09
2022-08-16T11:47:54.512Z,100624.50
2022-08-16T11:50:23.327Z,100619.94
2022-08-16T11:52:49.989Z,100626.16
2022-08-16T11:55:16.922Z,100640.66
2022-08-16T11:57:43.387Z,100634.75
2022-08-16T12:00:33.561Z,100636.84
2022-08-16T12:03:01.373Z,100639.66
2022-08-16T12:05:28.189Z,100648.00
2022-08-16T12:07:55.947Z,100642.34
2022-08-16T12:10:25.325Z,100650.25
2022-08-16T12:12:54.667Z,100659.53
2022-08-16T12:15:26.390Z,100654.38
2022-08-16T12:17:55.701Z,100652.22
2022-08-16T12:20:27.601Z,100650.47
2022-08-16T12:22:57.229Z,100659.91
2022-08-16T12:25:27.389Z,100651.75
2022-08-16T12:27:54.932Z,100657.91
2022-08-16T12:30:32.234Z,100662.06
2022-08-16T12:33:03.013Z,100663.88
2022-08-16T12:35:32.557Z,100666.34
2022-08-16T12:38:00.961Z,100667.06
2022-08-16T12:40:41.880Z,100669.59
2022-08-16T12:43:11.647Z,100667.25
2022-08-16T12:45:43.439Z,100658.25
2022-08-16T12:48:33.474Z,100649.38
2022-08-16T12:51:07.073Z,100645.25
2022-08-16T12:53:40.506Z,100641.63
2022-08-16T12:56:11.252Z,100636.69
2022-08-16T12:58:49.227Z,100632.19
2022-08-16T13:01:23.219Z,100636.28
2022-08-16T13:04:11.436Z,100632.75
2022-08-16T13:06:39.852Z,100632.03
2022-08-16T13:09:21.472Z,100633.16
2022-08-16T13:12:03.498Z,100628.00
2022-08-16T13:14:38.018Z,100633.97
2022-08-16T13:17:12.855Z,100630.72
2022-08-16T13:22:32.419Z,100626.63
2022-08-16T13:24:59.441Z,100627.13
2022-08-16T13:27:59.121Z,100631.09
2022-08-16T13:30:35.357Z,100626.63
2022-08-16T13:33:00.451Z,100639.28
2022-08-16T13:35:27.943Z,100640.50
2022-08-16T13:38:01.276Z,100640.84
2022-08-16T13:40:27.827Z,100635.56
2022-08-16T13:42:54.398Z,100634.06
2022-08-16T13:45:20.876Z,100635.34
2022-08-16T13:47:52.982Z,100634.69
2022-08-16T13:50:31.319Z,100633.47
2022-08-16T13:53:07.309Z,100636.78
2022-08-16T13:55:34.648Z,100633.44
2022-08-16T13:58:37.311Z,100637.22
2022-08-16T14:00:47.826Z,100635.44
2022-08-16T14:03:21.125Z,100643.66
2022-08-16T14:05:48.133Z,100642.28
2022-08-16T14:08:14.651Z,100645.38
2022-08-16T14:10:41.685Z,100642.75
2022-08-16T14:13:08.116Z,100643.25
2022-08-16T14:15:46.731Z,100644.03
2022-08-16T14:18:20.001Z,100643.81
2022-08-16T14:20:58.420Z,100636.31
2022-08-16T14:23:24.905Z,100632.94
2022-08-16T14:25:53.926Z,100633.84
2022-08-16T14:28:23.406Z,100626.09
2022-08-16T14:30:50.654Z,100630.47
2022-08-16T14:33:17.905Z,100629.63
2022-08-16T14:35:49.151Z,100632.84
2022-08-16T14:38:18.794Z,100632.97
2022-08-16T14:40:52.494Z,100639.88
2022-08-16T14:43:21.931Z,100633.09
2022-08-16T14:45:50.388Z,100629.63
2022-08-16T14:48:25.170Z,100627.97
2022-08-16T14:50:53.755Z,100628.09
2022-08-16T14:53:20.529Z,100630.34
2022-08-16T14:55:47.047Z,100626.84
2022-08-16T14:58:19.141Z,100628.72
2022-08-16T15:00:47.696Z,100632.66
2022-08-16T15:03:18.185Z,100624.66
2022-08-16T15:05:44.658Z,100629.28
2022-08-16T15:08:11.350Z,100627.44
2022-08-16T15:10:42.818Z,100614.41
2022-08-16T15:13:15.125Z,100629.44
2022-08-16T15:15:43.260Z,100631.69
2022-08-16T15:18:13.731Z,100625.25
2022-08-16T15:20:53.017Z,100628.09
2022-08-16T15:23:19.429Z,100625.22
2022-08-16T15:26:02.516Z,100625.16
2022-08-16T15:28:32.263Z,100621.13
2022-08-16T15:31:04.001Z,100623.50
2022-08-16T15:33:33.341Z,100620.22
2022-08-16T15:36:00.389Z,100627.59
2022-08-16T15:38:56.901Z,100638.09
2022-08-16T15:41:28.648Z,100642.22
2022-08-16T15:44:05.070Z,100637.25
2022-08-16T15:46:56.821Z,100642.16
2022-08-16T15:49:23.630Z,100640.38
2022-08-16T15:51:51.837Z,100642.59
2022-08-16T15:54:29.106Z,100639.06
2022-08-16T15:57:11.452Z,100643.63
2022-08-16T15:59:49.150Z,100642.22
2022-08-16T16:02:29.252Z,100635.97
2022-08-16T16:05:00.488Z,100642.44
2022-08-16T16:07:27.905Z,100649.13
2022-08-16T16:09:59.461Z,100645.75
2022-08-16T16:12:54.005Z,100649.44
2022-08-16T16:15:22.866Z,100643.81
2022-08-16T16:17:51.070Z,100642.97
2022-08-16T16:20:24.420Z,100646.16
2022-08-16T16:22:59.373Z,100644.19
2022-08-16T16:25:26.067Z,100644.22
2022-08-16T16:27:55.365Z,100642.97
2022-08-16T16:30:42.945Z,100644.97
2022-08-16T16:33:20.425Z,100644.38
2022-08-16T16:35:55.142Z,100637.00
2022-08-16T16:38:26.877Z,100642.22
2022-08-16T16:40:54.236Z,100642.88
2022-08-16T16:43:25.800Z,100651.13
2022-08-16T16:45:58.316Z,100649.03
2022-08-16T16:48:34.498Z,100648.72
2022-08-16T16:51:09.062Z,100655.44
2022-08-16T16:53:41.041Z,100658.81
2022-08-16T16:56:19.508Z,100648.44
2022-08-16T16:58:56.332Z,100652.63
2022-08-16T17:01:56.570Z,100649.41
2022-08-16T17:04:32.447Z,100655.09
2022-08-16T17:07:02.249Z,100664.59
2022-08-16T17:09:29.695Z,100667.81
2022-08-16T17:11:56.833Z,100673.75
2022-08-16T17:14:31.861Z,100686.47
2022-08-16T17:16:58.969Z,100691.91
2022-08-16T17:19:25.450Z,100700.56
2022-08-16T17:21:59.089Z,100689.66
2022-08-16T17:24:39.883Z,100697.94
2022-08-16T17:27:11.417Z,100704.19
2022-08-16T17:29:45.989Z,100715.69
2022-08-16T17:32:46.624Z,100716.13
2022-08-16T17:35:09.854Z,100715.94
2022-08-16T17:37:48.674Z,100721.66
2022-08-16T17:40:41.617Z,100711.38
2022-08-16T17:43:16.358Z,100724.34
2022-08-16T17:45:43.352Z,100719.44
2022-08-16T17:48:10.250Z,100721.47
2022-08-16T17:50:38.042Z,100720.41
2022-08-16T17:53:05.346Z,100727.06
2022-08-16T17:55:35.476Z,100727.69
2022-08-16T17:58:20.184Z,100737.09
2022-08-16T18:00:48.814Z,100739.28
2022-08-16T18:04:02.230Z,100740.13
2022-08-16T18:06:12.197Z,100737.59
2022-08-16T18:08:39.772Z,100741.09
2022-08-16T18:11:07.907Z,100742.94
2022-08-16T18:13:34.586Z,100740.94
2022-08-16T18:16:01.182Z,100746.66
2022-08-16T18:18:27.765Z,100752.03
2022-08-16T18:21:13.038Z,100751.38
2022-08-16T18:23:39.468Z,100750.69
2022-08-16T18:26:07.241Z,100756.53
2022-08-16T18:28:35.003Z,100752.31
2022-08-16T18:31:05.340Z,100759.38
2022-08-16T18:33:33.580Z,100759.38
2022-08-16T18:36:20.847Z,100768.31
2022-08-16T18:38:49.262Z,100764.94
2022-08-16T18:41:16.450Z,100766.25
2022-08-16T18:44:22.422Z,100768.09
2022-08-16T18:46:29.431Z,100778.00
2022-08-16T18:48:55.971Z,100770.09
2022-08-16T18:51:25.475Z,100774.81
2022-08-16T18:53:52.213Z,100776.94
2022-08-16T18:56:18.626Z,100773.59
2022-08-16T18:58:45.134Z,100775.03
2022-08-16T19:01:11.712Z,100781.41
2022-08-16T19:03:38.215Z,100786.09
2022-08-16T19:06:10.491Z,100789.09
2022-08-16T19:08:38.525Z,100790.09
2022-08-16T19:11:10.064Z,100801.19
2022-08-16T19:13:36.587Z,100808.88
2022-08-16T19:16:04.569Z,100808.50
2022-08-16T19:18:36.657Z,100802.75
2022-08-16T19:21:04.647Z,100813.81
2022-08-16T19:23:34.351Z,100812.25
2022-08-16T19:26:06.960Z,100814.25
2022-08-16T19:28:51.519Z,100817.28
2022-08-16T19:31:28.857Z,100820.25
2022-08-16T19:33:56.724Z,100822.41
2022-08-16T19:36:35.530Z,100824.59
2022-08-16T19:39:06.604Z,100827.56
2022-08-16T19:41:35.445Z,100832.41
2022-08-16T19:44:02.072Z,100831.84
2022-08-16T19:46:28.488Z,100834.81
2022-08-16T19:48:54.855Z,100831.75
2022-08-16T19:51:21.371Z,100841.13
2022-08-16T19:53:47.762Z,100839.72
2022-08-16T19:56:14.195Z,100844.16
2022-08-16T19:58:56.118Z,100842.63
2022-08-16T20:01:27.289Z,100837.56
2022-08-16T20:03:53.664Z,100837.72
2022-08-16T20:06:38.008Z,100847.06
2022-08-16T20:09:06.400Z,100840.16
2022-08-16T20:11:34.435Z,100836.22
2022-08-16T20:14:00.913Z,100840.06
2022-08-16T20:16:27.487Z,100833.28
2022-08-16T20:18:53.872Z,100841.66
2022-08-16T20:21:20.391Z,100845.59
2022-08-16T20:23:46.900Z,100854.81
2022-08-16T20:26:13.438Z,100844.34
2022-08-16T20:28:52.671Z,100856.34
2022-08-16T20:31:21.943Z,100856.66
2022-08-16T20:33:48.790Z,100855.97
2022-08-16T20:36:16.346Z,100854.72
2022-08-16T20:38:46.644Z,100860.66
2022-08-16T20:41:13.238Z,100860.81
2022-08-16T20:43:39.923Z,100866.19
2022-08-16T20:46:06.771Z,100874.53
2022-08-16T20:48:33.185Z,100880.03
2022-08-16T20:50:59.724Z,100883.00
2022-08-16T20:53:26.230Z,100873.44
2022-08-16T20:55:52.762Z,100887.97
2022-08-16T20:58:19.183Z,100881.06
2022-08-16T21:00:45.684Z,100881.50
2022-08-16T21:03:13.334Z,100883.47
2022-08-16T21:05:39.956Z,100878.41
2022-08-16T21:08:26.801Z,100895.63
2022-08-16T21:10:53.329Z,100886.88
2022-08-16T21:13:20.824Z,100889.00
2022-08-16T21:15:47.460Z,100898.31
2022-08-16T21:18:13.918Z,100903.25
2022-08-16T21:20:40.689Z,100906.34
2022-08-16T21:23:09.914Z,100911.31
2022-08-16T21:25:42.918Z,100902.53
2022-08-16T21:28:40.718Z,100913.41
2022-08-16T21:31:14.215Z,100919.06
2022-08-16T21:33:41.144Z,100915.69
2022-08-16T21:36:07.973Z,100912.41
2022-08-16T21:38:34.739Z,100918.91
2022-08-16T21:41:03.108Z,100917.47
2022-08-16T21:43:32.621Z,100914.09
2022-08-16T21:46:00.971Z,100917.06
2022-08-16T21:48:33.580Z,100914.66
2022-08-16T21:51:07.391Z,100923.84
2022-08-16T21:53:34.721Z,100928.78
2022-08-16T21:56:01.335Z,100924.53
2022-08-16T21:58:28.000Z,100929.31
2022-08-16T22:00:54.845Z,100935.78
2022-08-16T22:03:21.719Z,100931.72
2022-08-16T22:06:12.052Z,100922.97
2022-08-16T22:08:46.717Z,100928.59
2022-08-16T22:11:22.266Z,100938.56
2022-08-16T22:13:51.305Z,100931.81
2022-08-16T22:16:31.466Z,100930.38
2022-08-16T22:18:57.924Z,100937.69
2022-08-16T22:21:24.854Z,100930.91
2022-08-16T22:23:56.995Z,100935.56
2022-08-16T22:26:31.327Z,100933.16
2022-08-16T22:29:00.690Z,100931.59
2022-08-16T22:31:27.345Z,100936.25
2022-08-16T22:33:53.932Z,100933.84
2022-08-16T22:36:20.395Z,100930.47
2022-08-16T22:38:56.718Z,100937.91
2022-08-16T22:41:24.682Z,100935.38
2022-08-16T22:43:52.139Z,100940.16
2022-08-16T22:46:19.345Z,100938.56
2022-08-16T22:48:45.973Z,100939.84
2022-08-16T22:51:12.451Z,100943.50
2022-08-16T22:53:38.955Z,100939.25
2022-08-16T22:56:05.609Z,100946.56
2022-08-16T22:58:36.464Z,100949.53
2022-08-16T23:01:05.788Z,100955.97
2022-08-16T23:03:32.602Z,100954.41
2022-08-16T23:06:02.649Z,100958.22
2022-08-16T23:08:39.865Z,100954.00
2022-08-16T23:11:10.020Z,100950.56
2022-08-16T23:13:36.545Z,100957.03
2022-08-16T23:16:10.505Z,100950.22
2022-08-16T23:18:39.343Z,100951.47
2022-08-16T23:21:09.851Z,100941.06
2022-08-16T23:23:38.038Z,100939.47
2022-08-16T23:26:45.088Z,100946.78
2022-08-16T23:28:52.631Z,100945.09
2022-08-16T23:31:19.576Z,100932.94
2022-08-16T23:33:46.822Z,100938.56
2022-08-16T23:36:13.415Z,100935.31
2022-08-16T23:38:40.141Z,100936.28
2022-08-16T23:41:12.140Z,100936.41
2022-08-16T23:43:44.324Z,100932.16
2022-08-16T23:46:15.458Z,100934.97
2022-08-16T23:49:58.176Z,100936.09
2022-08-16T23:51:29.016Z,100935.34
2022-08-16T23:53:55.700Z,100932.25
2022-08-16T23:56:22.292Z,100930.78
2022-08-16T23:58:54.582Z,100931.91
